sensor_id;sensor_type;location;lat;lon;timestamp;pressure;altitude;pressure_sealevel;temperature;humidity
64158;BME280;50449;51.528;5.076;2023-05-22T00:00:28;101428.63;;;23.85;45.97
64158;BME280;50449;51.528;5.076;2023-05-22T00:02:56;101435.59;;;23.83;45.69
64158;BME280;50449;51.528;5.076;2023-05-22T00:05:22;101433.78;;;23.78;46.06
64158;BME280;50449;51.528;5.076;2023-05-22T00:07:48;101427.75;;;23.76;45.61
64158;BME280;50449;51.528;5.076;2023-05-22T00:10:13;101430.34;;;23.72;45.69
64158;BME280;50449;51.528;5.076;2023-05-22T00:12:39;101422.69;;;23.69;45.96
64158;BME280;50449;51.528;5.076;2023-05-22T00:15:04;101424.13;;;23.67;46.17
64158;BME280;50449;51.528;5.076;2023-05-22T00:17:30;101423.63;;;23.65;45.91
64158;BME280;50449;51.528;5.076;2023-05-22T00:19:56;101415.97;;;23.62;46.02
64158;BME280;50449;51.528;5.076;2023-05-22T00:22:27;101421.28;;;23.58;45.63
64158;BME280;50449;51.528;5.076;2023-05-22T00:24:56;101415.59;;;23.54;46.07
64158;BME280;50449;51.528;5.076;2023-05-22T00:27:21;101409.56;;;23.52;46.23
64158;BME280;50449;51.528;5.076;2023-05-22T00:29:47;101413.78;;;23.50;45.83
64158;BME280;50449;51.528;5.076;2023-05-22T00:32:12;101408.09;;;23.46;46.26
64158;BME280;50449;51.528;5.076;2023-05-22T00:34:38;101411.16;;;23.45;45.83
64158;BME280;50449;51.528;5.076;2023-05-22T00:37:03;101410.97;;;23.41;45.87
64158;BME280;50449;51.528;5.076;2023-05-22T00:39:29;101417.94;;;23.39;46.17
64158;BME280;50449;51.528;5.076;2023-05-22T00:41:55;101403.94;;;23.35;45.85
64158;BME280;50449;51.528;5.076;2023-05-22T00:44:20;101392.41;;;23.33;45.86
64158;BME280;50449;51.528;5.076;2023-05-22T00:46:45;101390.63;;;23.28;45.96
64158;BME280;50449;51.528;5.076;2023-05-22T00:49:11;101397.56;;;23.26;46.27
64158;BME280;50449;51.528;5.076;2023-05-22T00:51:36;101396.22;;;23.23;46.34
64158;BME280;50449;51.528;5.076;2023-05-22T00:54:03;101395.22;;;23.19;46.30
64158;BME280;50449;51.528;5.076;2023-05-22T00:56:29;101394.72;;;23.17;45.93
64158;BME280;50449;51.528;5.076;2023-05-22T00:58:54;101381.56;;;23.14;46.33
64158;BME280;50449;51.528;5.076;2023-05-22T01:01:20;101397.91;;;23.10;46.31
64158;BME280;50449;51.528;5.076;2023-05-22T01:03:47;101389.97;;;23.09;46.31
64158;BME280;50449;51.528;5.076;2023-05-22T01:06:15;101396.09;;;23.06;46.00
64158;BME280;50449;51.528;5.076;2023-05-22T01:08:46;101388.44;;;23.03;46.07
64158;BME280;50449;51.528;5.076;2023-05-22T01:11:15;101389.88;;;23.00;46.52
64158;BME280;50449;51.528;5.076;2023-05-22T01:14:07;101391.31;;;22.98;46.41
64158;BME280;50449;51.528;5.076;2023-05-22T01:23:09;101397.34;;;22.86;46.56
64158;BME280;50449;51.528;5.076;2023-05-22T01:31:16;101406.13;;;22.74;46.72
64158;BME280;50449;51.528;5.076;2023-05-22T01:33:54;101397.38;;;22.72;46.49
64158;BME280;50449;51.528;5.076;2023-05-22T01:36:22;101408.72;;;22.71;46.42
64158;BME280;50449;51.528;5.076;2023-05-22T01:38:49;101406.53;;;22.67;46.35
64158;BME280;50449;51.528;5.076;2023-05-22T01:41:16;101401.66;;;22.64;46.63
64158;BME280;50449;51.528;5.076;2023-05-22T01:43:42;101399.25;;;22.63;46.73
64158;BME280;50449;51.528;5.076;2023-05-22T01:46:07;101402.59;;;22.60;46.70
64158;BME280;50449;51.528;5.076;2023-05-22T01:48:34;101394.13;;;22.56;46.57
64158;BME280;50449;51.528;5.076;2023-05-22T01:51:04;101397.19;;;22.55;46.54
64158;BME280;50449;51.528;5.076;2023-05-22T01:59:22;101385.59;;;22.44;46.75
64158;BME280;50449;51.528;5.076;2023-05-22T02:01:51;101386.19;;;22.41;46.95
64158;BME280;50449;51.528;5.076;2023-05-22T02:04:18;101390.38;;;22.38;46.93
64158;BME280;50449;51.528;5.076;2023-05-22T02:06:46;101387.94;;;22.37;46.87
64158;BME280;50449;51.528;5.076;2023-05-22T02:09:13;101392.09;;;22.34;46.90
64158;BME280;50449;51.528;5.076;2023-05-22T02:11:41;101389.97;;;22.31;46.50
64158;BME280;50449;51.528;5.076;2023-05-22T02:14:07;101387.50;;;22.30;47.06
64158;BME280;50449;51.528;5.076;2023-05-22T02:16:36;101388.94;;;22.27;46.74
64158;BME280;50449;51.528;5.076;2023-05-22T02:19:02;101391.50;;;22.23;47.01
64158;BME280;50449;51.528;5.076;2023-05-22T02:21:34;101382.72;;;22.21;46.66
64158;BME280;50449;51.528;5.076;2023-05-22T02:24:00;101380.56;;;22.18;47.15
64158;BME280;50449;51.528;5.076;2023-05-22T02:26:26;101388.31;;;22.16;47.01
64158;BME280;50449;51.528;5.076;2023-05-22T02:28:51;101381.47;;;22.14;46.70
64158;BME280;50449;51.528;5.076;2023-05-22T02:31:17;101377.41;;;22.11;47.19
64158;BME280;50449;51.528;5.076;2023-05-22T02:33:43;101368.97;;;22.08;47.06
64158;BME280;50449;51.528;5.076;2023-05-22T02:36:09;101367.63;;;22.05;47.05
64158;BME280;50449;51.528;5.076;2023-05-22T02:38:37;101368.72;;;22.04;46.89
64158;BME280;50449;51.528;5.076;2023-05-22T02:41:03;101372.09;;;22.01;47.27
64158;BME280;50449;51.528;5.076;2023-05-22T02:43:28;101366.09;;;21.99;47.05
64158;BME280;50449;51.528;5.076;2023-05-22T02:45:53;101363.13;;;21.95;46.88
64158;BME280;50449;51.528;5.076;2023-05-22T02:48:19;101356.31;;;21.93;47.28
64158;BME280;50449;51.528;5.076;2023-05-22T02:50:44;101357.75;;;21.90;46.98
64158;BME280;50449;51.528;5.076;2023-05-22T02:53:12;101356.41;;;21.88;47.30
64158;BME280;50449;51.528;5.076;2023-05-22T02:55:40;101360.59;;;21.85;46.98
64158;BME280;50449;51.528;5.076;2023-05-22T02:58:06;101350.16;;;21.82;47.12
64158;BME280;50449;51.528;5.076;2023-05-22T03:00:36;101348.84;;;21.79;47.14
64158;BME280;50449;51.528;5.076;2023-05-22T03:03:02;101358.50;;;21.77;47.28
64158;BME280;50449;51.528;5.076;2023-05-22T03:05:28;101360.78;;;21.75;47.13
64158;BME280;50449;51.528;5.076;2023-05-22T03:07:53;101363.00;;;21.73;47.06
64158;BME280;50449;51.528;5.076;2023-05-22T03:10:19;101356.19;;;21.70;47.13
64158;BME280;50449;51.528;5.076;2023-05-22T03:12:44;101357.59;;;21.68;47.52
64158;BME280;50449;51.528;5.076;2023-05-22T03:15:10;101362.88;;;21.64;47.24
64158;BME280;50449;51.528;5.076;2023-05-22T03:17:35;101348.63;;;21.62;46.91
64158;BME280;50449;51.528;5.076;2023-05-22T03:20:01;101363.78;;;21.59;47.10
64158;BME280;50449;51.528;5.076;2023-05-22T03:22:27;101357.78;;;21.57;47.28
64158;BME280;50449;51.528;5.076;2023-05-22T03:24:53;101364.69;;;21.55;47.57
64158;BME280;50449;51.528;5.076;2023-05-22T03:27:18;101357.03;;;21.52;47.77
64158;BME280;50449;51.528;5.076;2023-05-22T03:29:44;101352.97;;;21.49;47.26
64158;BME280;50449;51.528;5.076;2023-05-22T03:32:09;101353.56;;;21.46;47.56
64158;BME280;50449;51.528;5.076;2023-05-22T03:34:35;101354.97;;;21.44;47.43
64158;BME280;50449;51.528;5.076;2023-05-22T03:37:00;101359.97;;;21.42;47.19
64158;BME280;50449;51.528;5.076;2023-05-22T03:39:26;101350.38;;;21.39;47.64
64158;BME280;50449;51.528;5.076;2023-05-22T03:41:51;101358.09;;;21.37;47.62
64158;BME280;50449;51.528;5.076;2023-05-22T03:44:17;101360.34;;;21.35;47.37
64158;BME280;50449;51.528;5.076;2023-05-22T03:46:42;101359.81;;;21.33;47.35
64158;BME280;50449;51.528;5.076;2023-05-22T03:49:08;101349.44;;;21.30;47.64
64158;BME280;50449;51.528;5.076;2023-05-22T03:51:33;101354.41;;;21.28;47.54
64158;BME280;50449;51.528;5.076;2023-05-22T03:53:58;101346.78;;;21.25;47.37
64158;BME280;50449;51.528;5.076;2023-05-22T03:56:24;101352.56;;;21.23;47.43
64158;BME280;50449;51.528;5.076;2023-05-22T03:58:49;101352.03;;;21.21;47.80
64158;BME280;50449;51.528;5.076;2023-05-22T04:01:15;101354.56;;;21.17;47.49
64158;BME280;50449;51.528;5.076;2023-05-22T04:03:41;101340.31;;;21.15;47.42
64158;BME280;50449;51.528;5.076;2023-05-22T04:06:06;101338.97;;;21.13;47.46
64158;BME280;50449;51.528;5.076;2023-05-22T04:08:32;101343.94;;;21.11;47.83
64158;BME280;50449;51.528;5.076;2023-05-22T04:10:57;101348.44;;;21.07;47.69
64158;BME280;50449;51.528;5.076;2023-05-22T04:13:22;101347.91;;;21.05;47.72
64158;BME280;50449;51.528;5.076;2023-05-22T04:15:48;101356.44;;;21.03;47.61
64158;BME280;50449;51.528;5.076;2023-05-22T04:18:14;101357.84;;;21.01;47.70
64158;BME280;50449;51.528;5.076;2023-05-22T04:20:40;101353.47;;;21.00;47.99
64158;BME280;50449;51.528;5.076;2023-05-22T04:23:06;101356.81;;;20.96;48.05
64158;BME280;50449;51.528;5.076;2023-05-22T04:25:32;101360.16;;;20.93;48.06
64158;BME280;50449;51.528;5.076;2023-05-22T04:27:59;101349.75;;;20.90;47.55
64158;BME280;50449;51.528;5.076;2023-05-22T04:30:27;101352.78;;;20.89;48.12
64158;BME280;50449;51.528;5.076;2023-05-22T04:32:52;101349.56;;;20.87;47.92
64158;BME280;50449;51.528;5.076;2023-05-22T04:35:18;101352.88;;;20.84;47.73
64158;BME280;50449;51.528;5.076;2023-05-22T04:37:44;101361.41;;;20.82;47.77
64158;BME280;50449;51.528;5.076;2023-05-22T04:40:10;101362.84;;;20.80;47.89
64158;BME280;50449;51.528;5.076;2023-05-22T04:42:40;101362.31;;;20.78;48.26
64158;BME280;50449;51.528;5.076;2023-05-22T04:45:07;101356.28;;;20.75;48.31
64158;BME280;50449;51.528;5.076;2023-05-22T04:47:32;101353.84;;;20.74;47.79
64158;BME280;50449;51.528;5.076;2023-05-22T04:49:58;101360.75;;;20.71;48.11
64158;BME280;50449;51.528;5.076;2023-05-22T04:52:27;101357.78;;;20.68;47.87
64158;BME280;50449;51.528;5.076;2023-05-22T04:54:52;101361.63;;;20.67;48.17
64158;BME280;50449;51.528;5.076;2023-05-22T04:57:19;101368.22;;;20.66;48.00
64158;BME280;50449;51.528;5.076;2023-05-22T04:59:46;101357.84;;;20.63;48.11
64158;BME280;50449;51.528;5.076;2023-05-22T05:02:12;101361.72;;;20.62;48.38
64158;BME280;50449;51.528;5.076;2023-05-22T05:04:37;101367.78;;;20.59;48.07
64158;BME280;50449;51.528;5.076;2023-05-22T05:07:03;101368.09;;;20.57;48.35
64158;BME280;50449;51.528;5.076;2023-05-22T05:09:30;101378.53;;;20.55;48.04
64158;BME280;50449;51.528;5.076;2023-05-22T05:11:55;101378.78;;;20.53;48.47
64158;BME280;50449;51.528;5.076;2023-05-22T05:14:21;101378.28;;;20.51;48.44
64158;BME280;50449;51.528;5.076;2023-05-22T05:16:46;101378.56;;;20.50;48.42
64158;BME280;50449;51.528;5.076;2023-05-22T05:19:12;101386.59;;;20.46;48.19
64158;BME280;50449;51.528;5.076;2023-05-22T05:21:38;101384.94;;;20.45;48.39
64158;BME280;50449;51.528;5.076;2023-05-22T05:24:04;101388.00;;;20.44;48.28
64158;BME280;50449;51.528;5.076;2023-05-22T05:26:30;101381.97;;;20.42;48.23
64158;BME280;50449;51.528;5.076;2023-05-22T05:28:55;101382.25;;;20.40;48.57
64158;BME280;50449;51.528;5.076;2023-05-22T05:31:21;101375.44;;;20.38;48.33
64158;BME280;50449;51.528;5.076;2023-05-22T05:33:48;101374.09;;;20.35;48.32
64158;BME280;50449;51.528;5.076;2023-05-22T05:36:14;101380.69;;;20.34;48.72
64158;BME280;50449;51.528;5.076;2023-05-22T05:38:40;101388.41;;;20.32;48.50
64158;BME280;50449;51.528;5.076;2023-05-22T05:41:05;101385.13;;;20.30;48.64
64158;BME280;50449;51.528;5.076;2023-05-22T05:43:31;101397.22;;;20.29;48.83
64158;BME280;50449;51.528;5.076;2023-05-22T05:45:56;101396.69;;;20.27;48.53
64158;BME280;50449;51.528;5.076;2023-05-22T05:48:22;101399.72;;;20.25;48.86
64158;BME280;50449;51.528;5.076;2023-05-22T05:50:47;101402.75;;;20.24;49.01
64158;BME280;50449;51.528;5.076;2023-05-22T05:53:14;101401.91;;;20.23;48.66
64158;BME280;50449;51.528;5.076;2023-05-22T05:55:39;101405.78;;;20.22;48.96
64158;BME280;50449;51.528;5.076;2023-05-22T05:58:05;101403.31;;;20.21;49.07
64158;BME280;50449;51.528;5.076;2023-05-22T06:00:31;101402.81;;;20.19;48.64
64158;BME280;50449;51.528;5.076;2023-05-22T06:02:56;101408.59;;;20.17;49.24
64158;BME280;50449;51.528;5.076;2023-05-22T06:05:21;101403.38;;;20.16;48.85
64158;BME280;50449;51.528;5.076;2023-05-22T06:07:47;101404.50;;;20.15;49.06
64158;BME280;50449;51.528;5.076;2023-05-22T06:10:13;101400.13;;;20.14;49.05
64158;BME280;50449;51.528;5.076;2023-05-22T06:12:39;101409.44;;;20.13;49.14
64158;BME280;50449;51.528;5.076;2023-05-22T06:15:06;101402.34;;;20.12;49.33
64158;BME280;50449;51.528;5.076;2023-05-22T06:17:33;101407.28;;;20.09;49.54
64158;BME280;50449;51.528;5.076;2023-05-22T06:19:59;101407.56;;;20.08;49.63
64158;BME280;50449;51.528;5.076;2023-05-22T06:22:24;101410.31;;;20.08;49.67
64158;BME280;50449;51.528;5.076;2023-05-22T06:24:51;101407.56;;;20.08;49.77
64158;BME280;50449;51.528;5.076;2023-05-22T06:27:19;101415.31;;;20.06;49.30
64158;BME280;50449;51.528;5.076;2023-05-22T06:29:46;101413.66;;;20.05;49.29
64158;BME280;50449;51.528;5.076;2023-05-22T06:32:12;101418.31;;;20.04;49.19
64158;BME280;50449;51.528;5.076;2023-05-22T06:34:37;101417.50;;;20.04;49.68
64158;BME280;50449;51.528;5.076;2023-05-22T06:37:04;101424.09;;;20.03;49.27
64158;BME280;50449;51.528;5.076;2023-05-22T06:39:29;101416.97;;;20.02;49.33
64158;BME280;50449;51.528;5.076;2023-05-22T06:41:54;101427.94;;;20.02;49.36
64158;BME280;50449;51.528;5.076;2023-05-22T06:44:20;101431.50;;;20.02;49.84
64158;BME280;50449;51.528;5.076;2023-05-22T06:46:45;101433.72;;;20.00;49.88
64158;BME280;50449;51.528;5.076;2023-05-22T06:49:11;101436.44;;;20.00;49.75
64158;BME280;50449;51.528;5.076;2023-05-22T06:51:36;101443.88;;;20.00;49.79
64158;BME280;50449;51.528;5.076;2023-05-22T06:54:02;101432.91;;;20.00;49.94
64158;BME280;50449;51.528;5.076;2023-05-22T06:56:30;101439.50;;;19.99;49.67
64158;BME280;50449;51.528;5.076;2023-05-22T06:58:56;101435.94;;;19.98;49.51
64158;BME280;50449;51.528;5.076;2023-05-22T07:01:22;101450.75;;;19.97;49.59
64158;BME280;50449;51.528;5.076;2023-05-22T07:03:48;101457.03;;;19.98;49.56
64158;BME280;50449;51.528;5.076;2023-05-22T07:06:13;101462.53;;;19.98;49.90
64158;BME280;50449;51.528;5.076;2023-05-22T07:08:39;101458.97;;;19.97;49.69
64158;BME280;50449;51.528;5.076;2023-05-22T07:11:05;101452.41;;;19.98;49.99
64158;BME280;50449;51.528;5.076;2023-05-22T07:13:31;101452.69;;;19.97;49.52
64158;BME280;50449;51.528;5.076;2023-05-22T07:15:56;101465.28;;;19.98;49.81
64158;BME280;50449;51.528;5.076;2023-05-22T07:18:22;101466.38;;;19.97;49.54
64158;BME280;50449;51.528;5.076;2023-05-22T07:20:47;101473.50;;;19.98;49.78
64158;BME280;50449;51.528;5.076;2023-05-22T07:23:13;101468.84;;;19.98;49.86
64158;BME280;50449;51.528;5.076;2023-05-22T07:25:38;101472.69;;;19.97;49.83
64158;BME280;50449;51.528;5.076;2023-05-22T07:28:04;101470.75;;;19.98;49.55
64158;BME280;50449;51.528;5.076;2023-05-22T07:30:34;101476.25;;;19.98;50.02
64158;BME280;50449;51.528;5.076;2023-05-22T07:33:00;101473.50;;;19.98;50.09
64158;BME280;50449;51.528;5.076;2023-05-22T07:35:26;101468.84;;;19.98;50.03
64158;BME280;50449;51.528;5.076;2023-05-22T07:37:51;101468.84;;;19.98;50.07
64158;BME280;50449;51.528;5.076;2023-05-22T07:40:16;101476.25;;;19.98;50.40
64158;BME280;50449;51.528;5.076;2023-05-22T07:42:42;101480.63;;;19.99;50.22
64158;BME280;50449;51.528;5.076;2023-05-22T07:45:08;101478.69;;;19.99;49.74
64158;BME280;50449;51.528;5.076;2023-05-22T07:47:34;101473.22;;;19.99;50.14
64158;BME280;50449;51.528;5.076;2023-05-22T07:49:59;101467.72;;;19.99;49.70
64158;BME280;50449;51.528;5.076;2023-05-22T07:52:28;101473.22;;;19.99;49.91
64158;BME280;50449;51.528;5.076;2023-05-22T07:54:54;101474.03;;;20.00;50.28
64158;BME280;50449;51.528;5.076;2023-05-22T07:57:19;101480.31;;;20.00;50.41
64158;BME280;50449;51.528;5.076;2023-05-22T07:59:45;101479.50;;;20.00;50.03
64158;BME280;50449;51.528;5.076;2023-05-22T08:02:11;101492.13;;;20.01;49.98
64158;BME280;50449;51.528;5.076;2023-05-22T08:04:38;101485.53;;;20.02;50.09
64158;BME280;50449;51.528;5.076;2023-05-22T08:07:03;101483.06;;;20.00;50.10
64158;BME280;50449;51.528;5.076;2023-05-22T08:09:29;101486.66;;;20.01;50.02
64158;BME280;50449;51.528;5.076;2023-05-22T08:11:55;101486.66;;;20.01;50.18
64158;BME280;50449;51.528;5.076;2023-05-22T08:14:21;101481.97;;;20.01;50.32
64158;BME280;50449;51.528;5.076;2023-05-22T08:16:47;101477.31;;;20.02;50.12
64158;BME280;50449;51.528;5.076;2023-05-22T08:19:12;101481.69;;;20.03;50.13
64158;BME280;50449;51.528;5.076;2023-05-22T08:21:37;101480.59;;;20.04;50.30
64158;BME280;50449;51.528;5.076;2023-05-22T08:24:03;101483.31;;;20.04;50.37
64158;BME280;50449;51.528;5.076;2023-05-22T08:26:29;101483.88;;;20.06;50.44
64158;BME280;50449;51.528;5.076;2023-05-22T08:28:54;101483.88;;;20.06;50.03
64158;BME280;50449;51.528;5.076;2023-05-22T08:31:20;101480.00;;;20.07;50.51
64158;BME280;50449;51.528;5.076;2023-05-22T08:33:46;101477.25;;;20.07;50.48
64158;BME280;50449;51.528;5.076;2023-05-22T08:36:12;101483.56;;;20.07;50.75
64158;BME280;50449;51.528;5.076;2023-05-22T08:38:37;101485.22;;;20.08;50.41
64158;BME280;50449;51.528;5.076;2023-05-22T08:41:03;101482.47;;;20.08;50.66
64158;BME280;50449;51.528;5.076;2023-05-22T08:43:30;101481.34;;;20.09;50.70
64158;BME280;50449;51.528;5.076;2023-05-22T08:46:02;101487.38;;;20.12;50.68
64158;BME280;50449;51.528;5.076;2023-05-22T08:48:29;101491.75;;;20.13;50.87
64158;BME280;50449;51.528;5.076;2023-05-22T08:50:57;101492.53;;;20.13;50.77
64158;BME280;50449;51.528;5.076;2023-05-22T08:53:27;101489.81;;;20.13;51.25
64158;BME280;50449;51.528;5.076;2023-05-22T08:55:53;101482.41;;;20.14;50.77
64158;BME280;50449;51.528;5.076;2023-05-22T08:58:19;101482.94;;;20.16;51.23
64158;BME280;50449;51.528;5.076;2023-05-22T09:00:46;101469.75;;;20.18;51.11
64158;BME280;50449;51.528;5.076;2023-05-22T09:03:12;101464.78;;;20.20;50.87
64158;BME280;50449;51.528;5.076;2023-05-22T09:05:39;101468.06;;;20.22;50.91
64158;BME280;50449;51.528;5.076;2023-05-22T09:08:06;101466.94;;;20.23;51.43
64158;BME280;50449;51.528;5.076;2023-05-22T09:10:34;101470.22;;;20.25;50.96
64158;BME280;50449;51.528;5.076;2023-05-22T09:13:04;101470.75;;;20.27;51.52
64158;BME280;50449;51.528;5.076;2023-05-22T09:15:32;101463.06;;;20.29;51.68
64158;BME280;50449;51.528;5.076;2023-05-22T09:17:59;101464.69;;;20.30;51.33
64158;BME280;50449;51.528;5.076;2023-05-22T09:20:25;101466.03;;;20.32;51.37
64158;BME280;50449;51.528;5.076;2023-05-22T09:22:50;101455.59;;;20.35;51.44
64158;BME280;50449;51.528;5.076;2023-05-22T09:25:21;101456.13;;;20.37;51.49
64158;BME280;50449;51.528;5.076;2023-05-22T09:27:47;101461.03;;;20.40;51.33
64158;BME280;50449;51.528;5.076;2023-05-22T09:30:22;101459.91;;;20.41;51.59
64158;BME280;50449;51.528;5.076;2023-05-22T09:32:47;101455.47;;;20.45;51.02
64158;BME280;50449;51.528;5.076;2023-05-22T09:35:13;101451.84;;;20.49;51.23
64158;BME280;50449;51.528;5.076;2023-05-22T09:37:39;101454.56;;;20.55;51.96
64158;BME280;50449;51.528;5.076;2023-05-22T09:40:06;101453.69;;;20.59;51.76
64158;BME280;50449;51.528;5.076;2023-05-22T09:42:33;101462.97;;;20.63;51.81
64158;BME280;50449;51.528;5.076;2023-05-22T09:45:06;101455.78;;;20.67;51.70
64158;BME280;50449;51.528;5.076;2023-05-22T09:47:31;101457.34;;;20.73;51.59
64158;BME280;50449;51.528;5.076;2023-05-22T09:50:01;101459.22;;;20.78;51.35
64158;BME280;50449;51.528;5.076;2023-05-22T09:52:32;101453.97;;;20.82;51.22
64158;BME280;50449;51.528;5.076;2023-05-22T09:55:01;101458.56;;;20.86;51.55
64158;BME280;50449;51.528;5.076;2023-05-22T09:57:30;101456.56;;;20.92;51.38
64158;BME280;50449;51.528;5.076;2023-05-22T09:59:58;101456.50;;;20.97;51.84
64158;BME280;50449;51.528;5.076;2023-05-22T10:02:26;101441.59;;;21.03;51.87
64158;BME280;50449;51.528;5.076;2023-05-22T10:04:52;101443.16;;;21.09;52.00
64158;BME280;50449;51.528;5.076;2023-05-22T10:07:23;101443.56;;;21.16;51.64
64158;BME280;50449;51.528;5.076;2023-05-22T10:09:53;101439.94;;;21.21;51.63
64158;BME280;50449;51.528;5.076;2023-05-22T10:12:22;101454.41;;;21.27;51.85
64158;BME280;50449;51.528;5.076;2023-05-22T10:14:47;101446.94;;;21.32;51.41
64158;BME280;50449;51.528;5.076;2023-05-22T10:17:14;101448.22;;;21.40;51.95
64158;BME280;50449;51.528;5.076;2023-05-22T10:19:41;101445.41;;;21.45;51.92
64158;BME280;50449;51.528;5.076;2023-05-22T10:22:07;101441.16;;;21.53;51.69
64158;BME280;50449;51.528;5.076;2023-05-22T10:24:34;101453.41;;;21.60;51.67
64158;BME280;50449;51.528;5.076;2023-05-22T10:27:00;101445.59;;;21.68;51.55
64158;BME280;50449;51.528;5.076;2023-05-22T10:29:44;101435.03;;;21.75;51.70
64158;BME280;50449;51.528;5.076;2023-05-22T10:32:32;101438.16;;;21.82;51.82
64158;BME280;50449;51.528;5.076;2023-05-22T10:35:07;101433.91;;;21.90;51.69
64158;BME280;50449;51.528;5.076;2023-05-22T10:37:49;101430.47;;;21.98;51.65
64158;BME280;50449;51.528;5.076;2023-05-22T10:40:30;101430.59;;;22.07;51.77
64158;BME280;50449;51.528;5.076;2023-05-22T10:42:58;101432.63;;;22.15;51.88
64158;BME280;50449;51.528;5.076;2023-05-22T10:45:27;101437.47;;;22.23;51.75
64158;BME280;50449;51.528;5.076;2023-05-22T10:50:31;101420.34;;;22.40;51.58
64158;BME280;50449;51.528;5.076;2023-05-22T10:53:19;101423.22;;;22.49;51.65
64158;BME280;50449;51.528;5.076;2023-05-22T10:55:48;101424.41;;;22.56;51.41
64158;BME280;50449;51.528;5.076;2023-05-22T10:58:17;101421.75;;;22.65;51.49
64158;BME280;50449;51.528;5.076;2023-05-22T11:00:43;101428.47;;;22.73;51.68
64158;BME280;50449;51.528;5.076;2023-05-22T11:03:09;101421.41;;;22.80;51.47
64158;BME280;50449;51.528;5.076;2023-05-22T11:05:36;101422.31;;;22.89;51.29
64158;BME280;50449;51.528;5.076;2023-05-22T11:08:09;101418.56;;;22.99;51.03
64158;BME280;50449;51.528;5.076;2023-05-22T11:10:54;101411.50;;;23.07;50.87
64158;BME280;50449;51.528;5.076;2023-05-22T11:13:20;101421.78;;;23.15;50.89
64158;BME280;50449;51.528;5.076;2023-05-22T11:15:45;101416.66;;;23.22;51.06
64158;BME280;50449;51.528;5.076;2023-05-22T11:18:12;101421.75;;;23.29;50.94
64158;BME280;50449;51.528;5.076;2023-05-22T11:20:40;101422.94;;;23.37;51.03
64158;BME280;50449;51.528;5.076;2023-05-22T11:23:06;101419.41;;;23.45;50.91
64158;BME280;50449;51.528;5.076;2023-05-22T11:25:33;101415.09;;;23.52;50.42
64158;BME280;50449;51.528;5.076;2023-05-22T11:28:01;101417.94;;;23.61;50.59
64158;BME280;50449;51.528;5.076;2023-05-22T11:30:28;101420.22;;;23.68;50.57
64158;BME280;50449;51.528;5.076;2023-05-22T11:32:57;101413.97;;;23.76;50.71
64158;BME280;50449;51.528;5.076;2023-05-22T11:35:23;101415.97;;;23.84;50.16
64158;BME280;50449;51.528;5.076;2023-05-22T11:37:50;101408.88;;;23.92;50.20
64158;BME280;50449;51.528;5.076;2023-05-22T11:40:21;101404.84;;;23.98;50.10
64158;BME280;50449;51.528;5.076;2023-05-22T11:42:48;101409.56;;;24.06;50.43
64158;BME280;50449;51.528;5.076;2023-05-22T11:45:14;101407.97;;;24.14;49.93
64158;BME280;50449;51.528;5.076;2023-05-22T11:47:39;101406.38;;;24.22;49.70
64158;BME280;50449;51.528;5.076;2023-05-22T11:50:09;101406.75;;;24.29;49.42
64158;BME280;50449;51.528;5.076;2023-05-22T11:52:36;101407.09;;;24.36;49.45
64158;BME280;50449;51.528;5.076;2023-05-22T11:55:06;101396.41;;;24.43;49.68
64158;BME280;50449;51.528;5.076;2023-05-22T11:57:36;101407.03;;;24.50;49.27
64158;BME280;50449;51.528;5.076;2023-05-22T12:00:04;101400.19;;;24.56;49.40
64158;BME280;50449;51.528;5.076;2023-05-22T12:02:33;101404.75;;;24.60;49.42
64158;BME280;50449;51.528;5.076;2023-05-22T12:04:59;101410.28;;;24.69;49.32
64158;BME280;50449;51.528;5.076;2023-05-22T12:07:25;101405.44;;;24.75;48.94
64158;BME280;50449;51.528;5.076;2023-05-22T12:09:51;101404.16;;;24.81;49.34
64158;BME280;50449;51.528;5.076;2023-05-22T12:12:19;101408.38;;;24.87;48.81
64158;BME280;50449;51.528;5.076;2023-05-22T12:14:45;101412.63;;;24.93;48.86
64158;BME280;50449;51.528;5.076;2023-05-22T12:17:12;101406.13;;;24.98;48.75
64158;BME280;50449;51.528;5.076;2023-05-22T12:19:41;101400.44;;;25.03;48.79
64158;BME280;50449;51.528;5.076;2023-05-22T12:22:10;101420.91;;;25.11;48.56
64158;BME280;50449;51.528;5.076;2023-05-22T12:24:39;101419.09;;;25.15;48.58
64158;BME280;50449;51.528;5.076;2023-05-22T12:27:09;101427.28;;;25.20;48.78
64158;BME280;50449;51.528;5.076;2023-05-22T12:29:35;101423.53;;;25.24;48.51
64158;BME280;50449;51.528;5.076;2023-05-22T12:32:07;101417.84;;;25.30;48.20
64158;BME280;50449;51.528;5.076;2023-05-22T12:34:34;101410.22;;;25.35;48.37
64158;BME280;50449;51.528;5.076;2023-05-22T12:36:59;101418.34;;;25.40;48.47
64158;BME280;50449;51.528;5.076;2023-05-22T12:39:26;101417.03;;;25.46;47.99
64158;BME280;50449;51.528;5.076;2023-05-22T12:41:52;101414.09;;;25.52;48.30
64158;BME280;50449;51.528;5.076;2023-05-22T12:44:17;101424.97;;;25.57;47.88
64158;BME280;50449;51.528;5.076;2023-05-22T12:46:43;101416.00;;;25.60;48.02
64158;BME280;50449;51.528;5.076;2023-05-22T12:49:09;101413.91;;;25.65;47.74
64158;BME280;50449;51.528;5.076;2023-05-22T12:51:35;101415.66;;;25.70;47.70
64158;BME280;50449;51.528;5.076;2023-05-22T12:54:01;101415.03;;;25.73;47.81
64158;BME280;50449;51.528;5.076;2023-05-22T12:56:27;101401.81;;;25.79;47.81
64158;BME280;50449;51.528;5.076;2023-05-22T12:58:53;101409.94;;;25.84;47.83
64158;BME280;50449;51.528;5.076;2023-05-22T13:01:18;101409.31;;;25.87;47.76
64158;BME280;50449;51.528;5.076;2023-05-22T13:03:45;101406.72;;;25.90;47.58
64158;BME280;50449;51.528;5.076;2023-05-22T13:06:10;101414.00;;;25.95;47.38
64158;BME280;50449;51.528;5.076;2023-05-22T13:08:39;101408.63;;;25.99;47.65